Time,TemperatureF,DewpointF,PressureIn,WindDirection,WindDirectionDegrees,WindSpeedMPH,WindSpeedGustMPH,Humidity,HourlyPrecipIn,Conditions,Clouds,dailyrainin,SolarRadiationWatts/m^2,SoftwareType,DateUTC
2013-06-27 00:01:00,58.0,51.0,-100.00,NNW,329,2.0,5.0,77,0.00,,,0.32,0.000000,,2013-06-27 06:01:00,
2013-06-27 00:12:00,58.0,51.0,-100.00,NNW,329,2.0,5.0,77,0.00,,,0.32,0.000000,,2013-06-27 06:12:00,
2013-06-27 00:22:00,58.0,51.0,-100.00,NNW,329,2.0,5.0,77,0.00,,,0.32,0.000000,,2013-06-27 06:22:00,
2013-06-27 00:34:00,58.0,51.0,-100.00,NNW,329,2.0,5.0,77,0.00,,,0.32,0.000000,,2013-06-27 06:34:00,
2013-06-27 01:02:00,56.0,52.0,-100.00,WSW,237,0.0,3.0,85,0.00,,,0.32,0.000000,,2013-06-27 07:02:00,
2013-06-27 01:12:00,56.0,52.0,-100.00,WSW,237,0.0,3.0,85,0.00,,,0.32,0.000000,,2013-06-27 07:12:00,
2013-06-27 01:22:00,56.0,52.0,-100.00,WSW,237,0.0,3.0,85,0.00,,,0.32,0.000000,,2013-06-27 07:22:00,
2013-06-27 01:33:00,56.0,52.0,-100.00,WSW,237,0.0,3.0,85,0.00,,,0.32,0.000000,,2013-06-27 07:33:00,
2013-06-27 02:01:00,56.0,52.0,-100.00,North,350,2.0,4.0,87,0.00,,,0.31,0.000000,,2013-06-27 08:01:00,
2013-06-27 02:11:00,56.0,52.0,-100.00,North,350,2.0,4.0,87,0.00,,,0.31,0.000000,,2013-06-27 08:11:00,
2013-06-27 02:22:00,56.0,52.0,-100.00,North,350,2.0,4.0,87,0.00,,,0.31,0.000000,,2013-06-27 08:22:00,
2013-06-27 02:34:00,56.0,52.0,-100.00,North,350,2.0,4.0,87,0.00,,,0.31,0.000000,,2013-06-27 08:34:00,
2013-06-27 03:02:00,54.0,51.0,-100.00,WNW,299,0.0,3.0,91,0.00,,,0.29,0.000000,,2013-06-27 09:02:00,
2013-06-27 03:11:00,54.0,51.0,-100.00,WNW,299,0.0,3.0,91,0.00,,,0.29,0.000000,,2013-06-27 09:11:00,
2013-06-27 03:22:00,54.0,51.0,-100.00,WNW,299,0.0,3.0,91,0.00,,,0.29,0.000000,,2013-06-27 09:22:00,
2013-06-27 03:33:00,54.0,51.0,-100.00,WNW,299,0.0,3.0,91,0.00,,,0.29,0.000000,,2013-06-27 09:33:00,
2013-06-27 04:01:00,53.0,50.0,-100.00,East,85,2.0,4.0,91,0.00,,,0.17,0.000000,,2013-06-27 10:01:00,
2013-06-27 04:11:00,53.0,50.0,-100.00,East,85,2.0,4.0,91,0.00,,,0.17,0.000000,,2013-06-27 10:11:00,
2013-06-27 04:22:00,53.0,50.0,-100.00,East,85,2.0,4.0,91,0.00,,,0.17,0.000000,,2013-06-27 10:22:00,
2013-06-27 04:32:00,53.0,50.0,-100.00,East,85,2.0,4.0,91,0.00,,,0.17,0.000000,,2013-06-27 10:32:00,
2013-06-27 05:01:00,52.0,50.0,-100.00,ESE,103,2.0,6.0,94,0.00,,,0.14,0.000000,,2013-06-27 11:01:00,
2013-06-27 05:11:00,52.0,50.0,-100.00,ESE,103,2.0,6.0,94,0.00,,,0.14,0.000000,,2013-06-27 11:11:00,
2013-06-27 05:21:00,52.0,50.0,-100.00,ESE,103,2.0,6.0,94,0.00,,,0.14,0.000000,,2013-06-27 11:21:00,
2013-06-27 05:33:00,52.0,50.0,-100.00,ESE,103,2.0,6.0,94,0.00,,,0.14,0.000000,,2013-06-27 11:33:00,
2013-06-27 06:01:00,51.0,50.0,-100.00,East,82,2.0,4.0,97,0.00,,,-99.99,0.000000,,2013-06-27 12:01:00,
2013-06-27 06:11:00,51.0,50.0,-100.00,East,82,2.0,4.0,97,0.00,,,-99.99,0.000000,,2013-06-27 12:11:00,
2013-06-27 06:22:00,51.0,50.0,-100.00,East,82,2.0,4.0,97,0.00,,,-99.99,0.000000,,2013-06-27 12:22:00,
2013-06-27 06:34:00,51.0,50.0,-100.00,East,82,2.0,4.0,97,0.00,,,-99.99,0.000000,,2013-06-27 12:34:00,
2013-06-27 07:01:00,50.0,50.0,-100.00,East,92,6.0,8.0,99,0.00,,,0.07,8.000000,,2013-06-27 13:01:00,
2013-06-27 07:11:00,50.0,50.0,-100.00,East,92,6.0,8.0,99,0.00,,,0.07,8.000000,,2013-06-27 13:11:00,
2013-06-27 07:22:00,50.0,50.0,-100.00,East,92,6.0,8.0,99,0.00,,,0.07,8.000000,,2013-06-27 13:22:00,
2013-06-27 07:33:00,50.0,50.0,-100.00,East,92,6.0,8.0,99,0.00,,,0.07,8.000000,,2013-06-27 13:33:00,
2013-06-27 08:01:00,52.0,50.0,-100.00,NE,37,2.0,8.0,93,0.00,,,0.07,76.000000,,2013-06-27 14:01:00,
2013-06-27 08:11:00,52.0,50.0,-100.00,NE,37,2.0,8.0,93,0.00,,,0.07,76.000000,,2013-06-27 14:11:00,
2013-06-27 08:22:00,52.0,50.0,-100.00,NE,37,2.0,8.0,93,0.00,,,0.07,76.000000,,2013-06-27 14:22:00,
2013-06-27 08:33:00,52.0,50.0,-100.00,NE,37,2.0,8.0,93,0.00,,,0.07,76.000000,,2013-06-27 14:33:00,
2013-06-27 09:01:00,56.0,53.0,-100.00,SSW,198,0.0,4.0,89,0.00,,,0.06,207.000000,,2013-06-27 15:01:00,
2013-06-27 09:11:00,56.0,53.0,-100.00,SSW,198,0.0,4.0,89,0.00,,,0.06,207.000000,,2013-06-27 15:11:00,
2013-06-27 09:22:00,56.0,53.0,-100.00,SSW,198,0.0,4.0,89,0.00,,,0.06,207.000000,,2013-06-27 15:22:00,
2013-06-27 09:33:00,56.0,53.0,-100.00,SSW,198,0.0,4.0,89,0.00,,,0.06,207.000000,,2013-06-27 15:33:00,
2013-06-27 10:02:00,59.0,53.0,-100.00,West,271,3.0,5.0,80,0.00,,,0.06,436.000000,,2013-06-27 16:02:00,
2013-06-27 10:11:00,59.0,53.0,-100.00,West,271,3.0,5.0,80,0.00,,,0.06,436.000000,,2013-06-27 16:11:00,
2013-06-27 10:23:00,59.0,53.0,-100.00,West,271,3.0,5.0,80,0.00,,,0.06,436.000000,,2013-06-27 16:23:00,
2013-06-27 10:33:00,59.0,53.0,-100.00,West,271,3.0,5.0,80,0.00,,,0.06,436.000000,,2013-06-27 16:33:00,
2013-06-27 11:01:00,64.0,55.0,-100.00,WSW,256,1.0,5.0,72,0.00,,,0.06,625.000000,,2013-06-27 17:01:00,
2013-06-27 11:11:00,64.0,55.0,-100.00,WSW,256,1.0,5.0,72,0.00,,,0.06,625.000000,,2013-06-27 17:11:00,
2013-06-27 11:22:00,64.0,55.0,-100.00,WSW,256,1.0,5.0,72,0.00,,,0.06,625.000000,,2013-06-27 17:22:00,
2013-06-27 11:33:00,64.0,55.0,-100.00,WSW,256,1.0,5.0,72,0.00,,,0.06,625.000000,,2013-06-27 17:33:00,
2013-06-27 12:01:00,72.0,57.0,-100.00,West,260,1.0,6.0,60,0.00,,,0.03,771.000000,,2013-06-27 18:01:00,
2013-06-27 12:11:00,72.0,57.0,-100.00,West,260,1.0,6.0,60,0.00,,,0.03,771.000000,,2013-06-27 18:11:00,
2013-06-27 12:22:00,72.0,57.0,-100.00,West,260,1.0,6.0,60,0.00,,,0.03,771.000000,,2013-06-27 18:22:00,
2013-06-27 12:32:00,72.0,57.0,-100.00,West,260,1.0,6.0,60,0.00,,,0.03,771.000000,,2013-06-27 18:32:00,
2013-06-27 13:33:00,78.0,53.0,-100.00,East,92,2.0,7.0,42,0.00,,,0.00,885.000000,,2013-06-27 19:33:00,
2013-06-27 14:01:00,80.0,51.0,-100.00,WSW,238,5.0,10.0,36,0.00,,,0.00,932.000000,,2013-06-27 20:01:00,
2013-06-27 14:11:00,80.0,51.0,-100.00,WSW,238,5.0,10.0,36,0.00,,,0.00,932.000000,,2013-06-27 20:11:00,
2013-06-27 14:22:00,80.0,51.0,-100.00,WSW,238,5.0,10.0,36,0.00,,,0.00,932.000000,,2013-06-27 20:22:00,
2013-06-27 14:35:00,80.0,51.0,-100.00,WSW,238,5.0,10.0,36,0.00,,,0.00,932.000000,,2013-06-27 20:35:00,
2013-06-27 15:02:00,81.0,47.0,-100.00,WSW,251,8.0,18.0,30,0.00,,,0.00,958.000000,,2013-06-27 21:02:00,
2013-06-27 15:13:00,81.0,47.0,-100.00,WSW,251,8.0,18.0,30,0.00,,,0.00,958.000000,,2013-06-27 21:13:00,
2013-06-27 15:24:00,81.0,47.0,-100.00,WSW,251,8.0,18.0,30,0.00,,,0.00,958.000000,,2013-06-27 21:24:00,
2013-06-27 15:34:00,81.0,47.0,-100.00,WSW,251,8.0,18.0,30,0.00,,,0.00,958.000000,,2013-06-27 21:34:00,
2013-06-27 16:04:00,82.0,46.0,-100.00,West,269,10.0,21.0,28,0.00,,,0.00,921.000000,,2013-06-27 22:04:00,
2013-06-27 16:13:00,82.0,46.0,-100.00,West,269,10.0,21.0,28,0.00,,,0.00,921.000000,,2013-06-27 22:13:00,
2013-06-27 16:22:00,82.0,46.0,-100.00,West,269,10.0,21.0,28,0.00,,,0.00,921.000000,,2013-06-27 22:22:00,
2013-06-27 16:33:00,82.0,46.0,-100.00,West,269,10.0,21.0,28,0.00,,,0.00,921.000000,,2013-06-27 22:33:00,
2013-06-27 17:03:00,83.0,45.0,-100.00,West,260,14.0,21.0,26,0.00,,,0.00,832.000000,,2013-06-27 23:03:00,
2013-06-27 17:24:00,83.0,45.0,-100.00,West,260,14.0,21.0,26,0.00,,,0.00,832.000000,,2013-06-27 23:24:00,
2013-06-27 17:33:00,83.0,45.0,-100.00,West,260,14.0,21.0,26,0.00,,,0.00,832.000000,,2013-06-27 23:33:00,
2013-06-27 18:04:00,84.0,41.0,-100.00,WSW,254,12.0,25.0,22,0.00,,,0.00,711.000000,,2013-06-28 00:04:00,
2013-06-27 18:13:00,84.0,41.0,-100.00,WSW,254,12.0,25.0,22,0.00,,,0.00,711.000000,,2013-06-28 00:13:00,
2013-06-27 18:25:00,84.0,41.0,-100.00,WSW,254,12.0,25.0,22,0.00,,,0.00,711.000000,,2013-06-28 00:25:00,
2013-06-27 18:34:00,84.0,41.0,-100.00,WSW,254,12.0,25.0,22,0.00,,,0.00,711.000000,,2013-06-28 00:34:00,
2013-06-27 19:04:00,84.0,39.0,-100.00,WSW,245,11.0,22.0,20,0.00,,,0.00,553.000000,,2013-06-28 01:04:00,
2013-06-27 19:12:00,84.0,39.0,-100.00,WSW,245,11.0,22.0,20,0.00,,,0.00,553.000000,,2013-06-28 01:12:00,
2013-06-27 19:23:00,84.0,39.0,-100.00,WSW,245,11.0,22.0,20,0.00,,,0.00,553.000000,,2013-06-28 01:23:00,
2013-06-27 19:34:00,84.0,39.0,-100.00,WSW,245,11.0,22.0,20,0.00,,,0.00,553.000000,,2013-06-28 01:34:00,
2013-06-27 20:04:00,82.0,38.0,-100.00,West,272,11.0,17.0,21,0.00,,,0.00,379.000000,,2013-06-28 02:04:00,
2013-06-27 20:14:00,82.0,38.0,-100.00,West,272,11.0,17.0,21,0.00,,,0.00,379.000000,,2013-06-28 02:14:00,
2013-06-27 20:24:00,82.0,38.0,-100.00,West,272,11.0,17.0,21,0.00,,,0.00,379.000000,,2013-06-28 02:24:00,
2013-06-27 20:34:00,82.0,38.0,-100.00,West,272,11.0,17.0,21,0.00,,,0.00,379.000000,,2013-06-28 02:34:00,
2013-06-27 21:04:00,79.0,42.0,-100.00,WNW,293,8.0,13.0,27,0.00,,,0.00,202.000000,,2013-06-28 03:04:00,
2013-06-27 21:14:00,79.0,42.0,-100.00,WNW,293,8.0,13.0,27,0.00,,,0.00,202.000000,,2013-06-28 03:14:00,
2013-06-27 21:23:00,79.0,42.0,-100.00,WNW,293,8.0,13.0,27,0.00,,,0.00,202.000000,,2013-06-28 03:23:00,
2013-06-27 21:34:00,79.0,42.0,-100.00,WNW,293,8.0,13.0,27,0.00,,,0.00,202.000000,,2013-06-28 03:34:00,
2013-06-27 22:02:00,74.0,41.0,-100.00,SSE,154,2.0,12.0,31,0.00,,,0.00,19.000000,,2013-06-28 04:02:00,
2013-06-27 22:11:00,74.0,41.0,-100.00,SSE,154,2.0,12.0,31,0.00,,,0.00,19.000000,,2013-06-28 04:11:00,
2013-06-27 22:22:00,74.0,41.0,-100.00,SSE,154,2.0,12.0,31,0.00,,,0.00,19.000000,,2013-06-28 04:22:00,
2013-06-27 23:01:00,69.0,43.0,-100.00,East,97,2.0,5.0,39,-99.99,,,0.00,0.000000,,2013-06-28 05:01:00,
2013-06-27 23:11:00,69.0,43.0,-100.00,East,97,2.0,5.0,39,-99.99,,,0.00,0.000000,,2013-06-28 05:11:00,
2013-06-27 23:22:00,69.0,43.0,-100.00,East,97,2.0,5.0,39,-99.99,,,0.00,0.000000,,2013-06-28 05:22:00,
2013-06-27 23:33:00,69.0,43.0,-100.00,East,97,2.0,5.0,39,-99.99,,,0.00,0.000000,,2013-06-28 05:33:00,